Terminal Aerodrome Forecast
Issued by NWS

Home | Current Version | Previous Version | Text Only | Print | Product List | Glossary On
Versions: 1 2 3 4 5 6 7 8 9 10 11 12
585
FTUS46 KMTR 160538
TAFSJC
TAF
KSJC 160538Z 1606/1706 34005KT 6SM HZ FEW006 SCT090 BKN150
     FM160900 31004KT P6SM SKC
     FM161500 31015G24KT P6SM FEW250
     FM161900 31026G32KT P6SM FEW250
     FM162300 32017G25KT P6SM SCT250
     FM170300 30009KT P6SM SKC=

USA.gov is the U.S. government's official web portal to all federal, state and local government web resources and services.